Jefferson, NC

3:35 PM EDT on October 22, 2019 (GMT -0400)
Ashe County

Weather History for KGEV - June, 2019

Change the Weather History Date:

Monday, June 10, 2019

  Actual Average Record
Temperature  
Mean Temperature 65 °F -  
Max Temperature 69 °F 76 °F 86 °F (1993)
Min Temperature 61 °F 53 °F 34 °F (1988)
Growing Degree Days 15 (Base 50)    
Moisture  
Dew Point 63 °F    
Average Humidity 95    
Maximum Humidity 100    
Minimum Humidity 85    
Precipitation  
Precipitation 0.14 in - - ()
Sea Level Pressure  
Sea Level Pressure 30.06 in    
Wind  
Wind Speed 2 mph (West)    
Max Wind Speed 20 mph    
Max Gust Speed 31 mph    
Visibility 6 miles    
Events Fog , Rain , Thunderstorm    
Averages and records for this station are not official NWS values.
T = Trace of Precipitation, MM = Missing Value Source: NWS Daily Summary

Daily Weather History Graph

Daily Weather History Graph

Search for Another Location

Airport or City:

Astronomy

Jun. 10, 2019 Rise Set
Actual Time 6:07 AM EDT 8:43 PM EDT
Civil Twilight 5:36 AM EDT 9:13 PM EDT
Nautical Twilight 4:59 AM EDT 9:51 PM EDT
Astronomical Twilight 4:17 AM EDT 10:33 PM EDT
Moon 1:46 PM EDT (6/10) 2:03 AM EDT (6/10)
Length of Visible Light 15h 36m
Length of Day
14h 35m
First Quarter, 55% of the Moon is Illuminated
Jun 10
First Quarter
Jun 17
Full
Jun 25
Last Quarter
Jul 2
New
Jul 9
First Quarter

Hourly Weather History & Observations

Time (EDT) Temp. Dew Point Humidity Pressure Visibility Wind Dir Wind Speed Gust Speed Precip Events Conditions
12:05 AM 61.9 °F 61.9 °F 100% 30.11 in 0.5 mi Calm Calm - N/A Fog Fog
12:25 AM 61.9 °F 61.9 °F 100% 30.10 in 0.5 mi Calm Calm - N/A Fog Fog
12:45 AM 61.9 °F 61.9 °F 100% 30.09 in 0.5 mi Calm Calm - 0.01 in   Drizzle
1:05 AM 62.1 °F 62.1 °F 100% 30.09 in 0.2 mi Calm Calm - 0.01 in   Drizzle
1:25 AM 62.1 °F 62.1 °F 100% 30.09 in 0.2 mi Calm Calm - 0.01 in Fog Fog
1:45 AM 62.1 °F 62.1 °F 100% 30.09 in 0.2 mi Calm Calm - 0.01 in Fog Fog
2:05 AM 62.1 °F 62.1 °F 100% 30.08 in 0.2 mi Calm Calm - N/A Fog Fog
2:25 AM 62.1 °F 62.1 °F 100% 30.08 in 0.2 mi Calm Calm - N/A Fog Fog
2:45 AM 62.1 °F 62.1 °F 100% 30.07 in 0.2 mi Calm Calm - N/A   Drizzle
3:05 AM 62.1 °F 62.1 °F 100% 30.07 in 0.5 mi Calm Calm - N/A   Light Drizzle
3:25 AM 62.1 °F 62.1 °F 100% 30.06 in 0.2 mi Calm Calm - N/A Fog Fog
3:45 AM 62.2 °F 62.2 °F 100% 30.06 in 0.2 mi Calm Calm - N/A Rain Rain
4:05 AM 62.2 °F 62.2 °F 100% 30.06 in 0.5 mi Calm Calm - N/A   Light Drizzle
4:25 AM 62.2 °F 62.2 °F 100% 30.06 in 0.5 mi Calm Calm - 0.01 in Fog Fog
4:45 AM 62.2 °F 62.2 °F 100% 30.06 in 0.5 mi Calm Calm - 0.01 in Fog Fog
5:05 AM 62.1 °F 62.1 °F 100% 30.06 in 0.5 mi Calm Calm - N/A Fog Fog
5:25 AM 62.1 °F 62.1 °F 100% 30.06 in 0.8 mi Calm Calm - N/A   Overcast
5:45 AM 62.1 °F 62.1 °F 100% 30.06 in 0.5 mi Calm Calm - N/A Fog Fog
6:05 AM 62.1 °F 62.1 °F 100% 30.06 in 0.5 mi Calm Calm - N/A   Drizzle
6:25 AM 62.2 °F 62.2 °F 100% 30.07 in 1.2 mi Calm Calm - N/A   Overcast
6:45 AM 62.2 °F 62.2 °F 100% 30.07 in 1.0 mi Calm Calm - 0.01 in Rain Heavy Rain
7:05 AM 62.6 °F 62.6 °F 100% 30.07 in 0.2 mi Calm Calm - N/A   Light Drizzle
7:25 AM 62.6 °F 62.6 °F 100% 30.08 in 0.2 mi Calm Calm - N/A Fog Fog
7:45 AM 62.6 °F 62.6 °F 100% 30.08 in 0.2 mi Calm Calm - N/A Fog Fog
8:05 AM 63.0 °F 63.0 °F 100% 30.08 in 0.2 mi Calm Calm - N/A   Light Drizzle
8:25 AM 63.3 °F 63.3 °F 100% 30.08 in 0.8 mi South 3.5 mph - N/A   Overcast
8:45 AM 63.9 °F 63.9 °F 100% 30.08 in 10.0 mi Calm Calm - N/A   Overcast
9:05 AM 64.2 °F 64.2 °F 100% 30.08 in 10.0 mi Calm Calm - N/A   Overcast
9:25 AM 64.0 °F 64.0 °F 100% 30.08 in 10.0 mi South 4.6 mph - N/A   Mostly Cloudy
9:45 AM 64.6 °F 64.6 °F 100% 30.08 in 10.0 mi Calm Calm - N/A   Overcast
10:05 AM 65.7 °F 65.3 °F 99% 30.08 in 10.0 mi SSE 5.8 mph - N/A   Overcast
10:25 AM 66.4 °F 65.5 °F 97% 30.08 in 10.0 mi Calm Calm - N/A   Overcast
10:45 AM 67.3 °F 64.6 °F 91% 30.07 in 10.0 mi Calm Calm - N/A   Overcast
11:05 AM 66.4 °F 63.9 °F 92% 30.08 in 10.0 mi SE 3.5 mph - N/A   Overcast
11:25 AM 66.4 °F 64.4 °F 93% 30.08 in 10.0 mi SE 3.5 mph - N/A   Overcast
11:45 AM 66.9 °F 64.8 °F 93% 30.08 in 10.0 mi SSE 3.5 mph - N/A   Overcast
12:25 PM 68.9 °F 64.9 °F 87% 30.07 in 10.0 mi Calm Calm - N/A   Overcast
12:45 PM 67.8 °F 65.3 °F 92% 30.07 in 10.0 mi SE 4.6 mph - N/A   Overcast
1:05 PM 66.6 °F 66.2 °F 99% 30.07 in 10.0 mi SSE 3.5 mph - N/A   Overcast
1:25 PM 68.4 °F 66.7 °F 95% 30.06 in 10.0 mi South 4.6 mph - N/A   Overcast
1:45 PM 67.3 °F 66.0 °F 96% 30.06 in 5.0 mi Calm Calm - N/A   Drizzle
2:05 PM 68.2 °F 66.0 °F 93% 30.06 in 10.0 mi South 3.5 mph - N/A   Overcast
2:25 PM 67.1 °F 65.5 °F 95% 30.05 in 1.8 mi Calm Calm - 0.05 in Rain Rain
3:05 PM 69.3 °F 66.0 °F 89% 30.04 in 10.0 mi Calm Calm - N/A   Overcast
3:25 PM 68.2 °F 64.6 °F 88% 30.03 in 5.0 mi West 3.5 mph - 0.01 in Rain Rain
3:45 PM 68.0 °F 64.9 °F 90% 30.03 in 10.0 mi West 6.9 mph - 0.02 in Rain Light Rain
4:05 PM 68.9 °F 64.9 °F 87% 30.03 in 10.0 mi West 9.2 mph - N/A   Mostly Cloudy
4:25 PM 68.0 °F 64.8 °F 89% 30.04 in 10.0 mi WSW 5.8 mph - N/A   Light Drizzle
4:45 PM 68.2 °F 64.2 °F 87% 30.04 in 10.0 mi West 6.9 mph - N/A Thunderstorm Thunderstorm
5:05 PM 68.2 °F 64.0 °F 87% 30.03 in 10.0 mi West 3.5 mph - N/A   Overcast
5:25 PM 68.9 °F 64.2 °F 85% 30.04 in 10.0 mi West 6.9 mph - N/A   Overcast
6:05 PM 66.7 °F 64.2 °F 92% 30.03 in 5.0 mi West 9.2 mph - N/A   Light Drizzle
6:25 PM 67.3 °F 64.0 °F 89% 30.03 in 10.0 mi WNW 9.2 mph - N/A   Overcast
6:45 PM 65.1 °F 62.1 °F 90% 30.03 in 2.5 mi NW 19.6 mph 25.3 mph 0.04 in Rain Light Rain
7:05 PM 64.0 °F 61.3 °F 91% 30.04 in 5.0 mi NW 17.3 mph 31.1 mph N/A   Light Drizzle
7:25 PM 63.9 °F 60.8 °F 90% 30.04 in 10.0 mi NW 12.7 mph 25.3 mph N/A   Overcast
7:45 PM 63.5 °F 60.8 °F 91% 30.04 in 10.0 mi NW 12.7 mph - N/A Rain Light Rain
8:05 PM 63.5 °F 60.8 °F 91% 30.04 in 10.0 mi NW 12.7 mph 19.6 mph N/A   Drizzle
8:25 PM 63.5 °F 60.6 °F 90% 30.05 in 10.0 mi NW 12.7 mph 18.4 mph N/A Rain Light Rain
8:45 PM 63.9 °F 60.3 °F 88% 30.06 in 10.0 mi NW 9.2 mph - N/A   Mostly Cloudy
9:05 PM 63.9 °F 60.1 °F 87% 30.06 in 10.0 mi NW 10.4 mph 18.4 mph N/A   Mostly Cloudy
9:25 PM 63.7 °F 60.1 °F 88% 30.06 in 10.0 mi NW 11.5 mph 17.3 mph N/A   Overcast
9:45 PM 63.5 °F 60.1 °F 89% 30.07 in 10.0 mi NNW 8.1 mph - N/A   Scattered Clouds
10:05 PM 63.1 °F 60.1 °F 90% 30.07 in 10.0 mi NW 5.8 mph - N/A   Scattered Clouds
10:25 PM 63.9 °F 59.9 °F 87% 30.08 in 10.0 mi NW 9.2 mph - N/A   Mostly Cloudy
10:45 PM 64.2 °F 59.5 °F 85% 30.08 in 10.0 mi NW 9.2 mph - N/A   Scattered Clouds
11:25 PM 64.4 °F 59.9 °F 85% 30.08 in 10.0 mi NW 12.7 mph 21.9 mph N/A   Overcast
11:45 PM 64.2 °F 60.1 °F 86% 30.08 in 10.0 mi NW 13.8 mph 20.7 mph N/A   Overcast